sensor_id;sensor_type;location;lat;lon;timestamp;P1;durP1;ratioP1;P2;durP2;ratioP2
7471;SDS011;3777;48.722;8.110;2023-12-14T00:02:25;15.50;;;12.83;;
7471;SDS011;3777;48.722;8.110;2023-12-14T00:04:53;16.40;;;10.77;;
7471;SDS011;3777;48.722;8.110;2023-12-14T00:07:20;12.37;;;9.13;;
7471;SDS011;3777;48.722;8.110;2023-12-14T00:09:47;9.60;;;8.17;;
7471;SDS011;3777;48.722;8.110;2023-12-14T00:12:14;9.23;;;7.47;;
7471;SDS011;3777;48.722;8.110;2023-12-14T00:14:41;9.43;;;7.00;;
7471;SDS011;3777;48.722;8.110;2023-12-14T00:17:08;7.60;;;6.53;;
7471;SDS011;3777;48.722;8.110;2023-12-14T00:19:35;8.23;;;6.53;;
7471;SDS011;3777;48.722;8.110;2023-12-14T00:22:03;7.77;;;6.20;;
7471;SDS011;3777;48.722;8.110;2023-12-14T00:24:30;8.43;;;6.40;;
7471;SDS011;3777;48.722;8.110;2023-12-14T00:26:57;7.03;;;6.30;;
7471;SDS011;3777;48.722;8.110;2023-12-14T00:29:24;8.33;;;7.00;;
7471;SDS011;3777;48.722;8.110;2023-12-14T00:31:51;8.20;;;7.30;;
7471;SDS011;3777;48.722;8.110;2023-12-14T00:34:18;10.67;;;8.53;;
7471;SDS011;3777;48.722;8.110;2023-12-14T00:36:45;12.57;;;10.63;;
7471;SDS011;3777;48.722;8.110;2023-12-14T00:39:13;13.60;;;11.30;;
7471;SDS011;3777;48.722;8.110;2023-12-14T00:41:40;12.07;;;10.30;;
7471;SDS011;3777;48.722;8.110;2023-12-14T00:44:07;15.37;;;11.90;;
7471;SDS011;3777;48.722;8.110;2023-12-14T00:46:34;17.83;;;13.30;;
7471;SDS011;3777;48.722;8.110;2023-12-14T00:49:01;16.47;;;12.90;;
7471;SDS011;3777;48.722;8.110;2023-12-14T00:51:28;15.30;;;11.57;;
7471;SDS011;3777;48.722;8.110;2023-12-14T00:53:55;10.73;;;9.03;;
7471;SDS011;3777;48.722;8.110;2023-12-14T00:56:23;10.87;;;8.10;;
7471;SDS011;3777;48.722;8.110;2023-12-14T00:58:50;10.33;;;7.27;;
7471;SDS011;3777;48.722;8.110;2023-12-14T01:01:17;7.83;;;5.53;;
7471;SDS011;3777;48.722;8.110;2023-12-14T01:03:44;6.30;;;5.03;;
7471;SDS011;3777;48.722;8.110;2023-12-14T01:06:11;8.03;;;3.80;;
7471;SDS011;3777;48.722;8.110;2023-12-14T01:08:38;3.67;;;3.27;;
7471;SDS011;3777;48.722;8.110;2023-12-14T01:11:05;5.63;;;3.80;;
7471;SDS011;3777;48.722;8.110;2023-12-14T01:13:34;4.60;;;3.23;;
7471;SDS011;3777;48.722;8.110;2023-12-14T01:16:01;4.40;;;3.67;;
7471;SDS011;3777;48.722;8.110;2023-12-14T01:18:28;4.53;;;3.67;;
7471;SDS011;3777;48.722;8.110;2023-12-14T01:20:55;3.70;;;3.20;;
7471;SDS011;3777;48.722;8.110;2023-12-14T01:23:21;4.20;;;3.80;;
7471;SDS011;3777;48.722;8.110;2023-12-14T01:25:48;4.23;;;3.80;;
7471;SDS011;3777;48.722;8.110;2023-12-14T01:28:15;4.10;;;3.60;;
7471;SDS011;3777;48.722;8.110;2023-12-14T01:30:44;4.63;;;4.23;;
7471;SDS011;3777;48.722;8.110;2023-12-14T01:33:11;4.30;;;3.73;;
7471;SDS011;3777;48.722;8.110;2023-12-14T01:35:38;4.60;;;4.20;;
7471;SDS011;3777;48.722;8.110;2023-12-14T01:38:05;7.87;;;4.50;;
7471;SDS011;3777;48.722;8.110;2023-12-14T01:40:32;5.33;;;4.20;;
7471;SDS011;3777;48.722;8.110;2023-12-14T01:43:08;4.53;;;4.13;;
7471;SDS011;3777;48.722;8.110;2023-12-14T01:45:35;5.27;;;4.53;;
7471;SDS011;3777;48.722;8.110;2023-12-14T01:48:04;6.03;;;4.80;;
7471;SDS011;3777;48.722;8.110;2023-12-14T01:50:31;5.63;;;4.97;;
7471;SDS011;3777;48.722;8.110;2023-12-14T01:52:58;5.57;;;4.60;;
7471;SDS011;3777;48.722;8.110;2023-12-14T01:55:25;5.67;;;4.70;;
7471;SDS011;3777;48.722;8.110;2023-12-14T01:57:52;5.00;;;4.30;;
7471;SDS011;3777;48.722;8.110;2023-12-14T02:00:21;6.73;;;5.17;;
7471;SDS011;3777;48.722;8.110;2023-12-14T02:02:54;5.43;;;4.30;;
7471;SDS011;3777;48.722;8.110;2023-12-14T02:05:22;4.97;;;4.53;;
7471;SDS011;3777;48.722;8.110;2023-12-14T02:07:49;6.50;;;4.43;;
7471;SDS011;3777;48.722;8.110;2023-12-14T02:10:16;4.83;;;4.30;;
7471;SDS011;3777;48.722;8.110;2023-12-14T02:12:43;5.23;;;4.20;;
7471;SDS011;3777;48.722;8.110;2023-12-14T02:15:10;5.27;;;4.30;;
7471;SDS011;3777;48.722;8.110;2023-12-14T02:17:37;5.07;;;4.57;;
7471;SDS011;3777;48.722;8.110;2023-12-14T02:20:05;4.70;;;4.30;;
7471;SDS011;3777;48.722;8.110;2023-12-14T02:22:35;4.87;;;4.43;;
7471;SDS011;3777;48.722;8.110;2023-12-14T02:25:15;6.20;;;4.57;;
7471;SDS011;3777;48.722;8.110;2023-12-14T02:27:42;5.53;;;4.70;;
7471;SDS011;3777;48.722;8.110;2023-12-14T02:30:09;8.30;;;6.17;;
7471;SDS011;3777;48.722;8.110;2023-12-14T02:32:37;8.87;;;6.80;;
7471;SDS011;3777;48.722;8.110;2023-12-14T02:35:04;10.37;;;8.87;;
7471;SDS011;3777;48.722;8.110;2023-12-14T02:37:32;12.20;;;9.97;;
7471;SDS011;3777;48.722;8.110;2023-12-14T02:40:03;12.83;;;9.67;;
7471;SDS011;3777;48.722;8.110;2023-12-14T02:42:31;13.67;;;9.30;;
7471;SDS011;3777;48.722;8.110;2023-12-14T02:44:59;12.37;;;9.90;;
7471;SDS011;3777;48.722;8.110;2023-12-14T02:47:27;14.47;;;11.73;;
7471;SDS011;3777;48.722;8.110;2023-12-14T02:49:54;19.00;;;14.30;;
7471;SDS011;3777;48.722;8.110;2023-12-14T02:52:21;18.73;;;13.43;;
7471;SDS011;3777;48.722;8.110;2023-12-14T02:54:48;15.53;;;11.73;;
7471;SDS011;3777;48.722;8.110;2023-12-14T02:57:16;13.30;;;10.40;;
7471;SDS011;3777;48.722;8.110;2023-12-14T02:59:43;10.87;;;9.00;;
7471;SDS011;3777;48.722;8.110;2023-12-14T03:02:10;12.20;;;9.13;;
7471;SDS011;3777;48.722;8.110;2023-12-14T03:04:37;10.97;;;8.57;;
7471;SDS011;3777;48.722;8.110;2023-12-14T03:07:05;11.27;;;9.07;;
7471;SDS011;3777;48.722;8.110;2023-12-14T03:09:32;11.10;;;8.10;;
7471;SDS011;3777;48.722;8.110;2023-12-14T03:12:00;10.67;;;8.20;;
7471;SDS011;3777;48.722;8.110;2023-12-14T03:14:31;9.33;;;7.87;;
7471;SDS011;3777;48.722;8.110;2023-12-14T03:16:58;8.67;;;7.53;;
7471;SDS011;3777;48.722;8.110;2023-12-14T03:19:25;10.17;;;7.03;;
7471;SDS011;3777;48.722;8.110;2023-12-14T03:21:52;8.83;;;6.63;;
7471;SDS011;3777;48.722;8.110;2023-12-14T03:24:19;6.70;;;5.80;;
7471;SDS011;3777;48.722;8.110;2023-12-14T03:26:46;6.67;;;5.67;;
7471;SDS011;3777;48.722;8.110;2023-12-14T03:29:13;7.23;;;6.50;;
7471;SDS011;3777;48.722;8.110;2023-12-14T03:31:42;7.77;;;6.67;;
7471;SDS011;3777;48.722;8.110;2023-12-14T03:34:10;9.27;;;7.27;;
7471;SDS011;3777;48.722;8.110;2023-12-14T03:36:38;10.50;;;7.60;;
7471;SDS011;3777;48.722;8.110;2023-12-14T03:39:04;8.87;;;7.20;;
7471;SDS011;3777;48.722;8.110;2023-12-14T03:41:32;9.13;;;7.83;;
7471;SDS011;3777;48.722;8.110;2023-12-14T03:43:59;10.80;;;7.93;;
7471;SDS011;3777;48.722;8.110;2023-12-14T03:46:26;9.60;;;7.70;;
7471;SDS011;3777;48.722;8.110;2023-12-14T03:48:54;9.03;;;8.00;;
7471;SDS011;3777;48.722;8.110;2023-12-14T03:51:22;9.43;;;8.43;;
7471;SDS011;3777;48.722;8.110;2023-12-14T03:53:48;11.30;;;9.23;;
7471;SDS011;3777;48.722;8.110;2023-12-14T03:56:15;12.57;;;8.90;;
7471;SDS011;3777;48.722;8.110;2023-12-14T03:58:42;12.17;;;9.40;;
7471;SDS011;3777;48.722;8.110;2023-12-14T04:01:16;11.53;;;9.03;;
7471;SDS011;3777;48.722;8.110;2023-12-14T04:03:43;10.50;;;9.00;;
7471;SDS011;3777;48.722;8.110;2023-12-14T04:06:12;11.13;;;9.17;;
7471;SDS011;3777;48.722;8.110;2023-12-14T04:08:39;12.90;;;10.17;;
7471;SDS011;3777;48.722;8.110;2023-12-14T04:11:06;13.10;;;10.17;;
7471;SDS011;3777;48.722;8.110;2023-12-14T04:13:33;13.20;;;10.80;;
7471;SDS011;3777;48.722;8.110;2023-12-14T04:16:01;13.53;;;10.53;;
7471;SDS011;3777;48.722;8.110;2023-12-14T04:18:28;16.10;;;11.50;;
7471;SDS011;3777;48.722;8.110;2023-12-14T04:20:55;13.47;;;10.83;;
7471;SDS011;3777;48.722;8.110;2023-12-14T04:23:24;13.63;;;10.47;;
7471;SDS011;3777;48.722;8.110;2023-12-14T04:25:52;14.57;;;10.90;;
7471;SDS011;3777;48.722;8.110;2023-12-14T04:28:19;14.80;;;10.90;;
7471;SDS011;3777;48.722;8.110;2023-12-14T04:30:45;16.53;;;10.97;;
7471;SDS011;3777;48.722;8.110;2023-12-14T04:33:12;15.03;;;11.20;;
7471;SDS011;3777;48.722;8.110;2023-12-14T04:35:40;14.60;;;11.37;;
7471;SDS011;3777;48.722;8.110;2023-12-14T04:38:07;14.60;;;12.00;;
7471;SDS011;3777;48.722;8.110;2023-12-14T04:40:35;15.50;;;12.00;;
7471;SDS011;3777;48.722;8.110;2023-12-14T04:43:02;14.10;;;11.07;;
7471;SDS011;3777;48.722;8.110;2023-12-14T04:45:29;15.67;;;11.37;;
7471;SDS011;3777;48.722;8.110;2023-12-14T04:47:56;14.87;;;11.77;;
7471;SDS011;3777;48.722;8.110;2023-12-14T04:50:23;17.23;;;11.40;;
7471;SDS011;3777;48.722;8.110;2023-12-14T04:52:50;15.50;;;11.73;;
7471;SDS011;3777;48.722;8.110;2023-12-14T04:55:17;14.13;;;11.00;;
7471;SDS011;3777;48.722;8.110;2023-12-14T04:57:45;16.77;;;11.37;;
7471;SDS011;3777;48.722;8.110;2023-12-14T05:00:14;15.57;;;11.90;;
7471;SDS011;3777;48.722;8.110;2023-12-14T05:02:45;15.27;;;12.03;;
7471;SDS011;3777;48.722;8.110;2023-12-14T05:05:14;14.60;;;11.70;;
7471;SDS011;3777;48.722;8.110;2023-12-14T05:07:41;14.23;;;11.47;;
7471;SDS011;3777;48.722;8.110;2023-12-14T05:10:08;13.10;;;11.27;;
7471;SDS011;3777;48.722;8.110;2023-12-14T05:12:35;16.63;;;12.27;;
7471;SDS011;3777;48.722;8.110;2023-12-14T05:15:05;14.90;;;11.27;;
7471;SDS011;3777;48.722;8.110;2023-12-14T05:17:32;18.30;;;11.27;;
7471;SDS011;3777;48.722;8.110;2023-12-14T05:20:01;15.87;;;11.13;;
7471;SDS011;3777;48.722;8.110;2023-12-14T05:22:29;12.93;;;10.80;;
7471;SDS011;3777;48.722;8.110;2023-12-14T05:24:56;15.43;;;11.03;;
7471;SDS011;3777;48.722;8.110;2023-12-14T05:27:23;14.73;;;10.30;;
7471;SDS011;3777;48.722;8.110;2023-12-14T05:29:50;14.40;;;10.20;;
7471;SDS011;3777;48.722;8.110;2023-12-14T05:32:19;14.33;;;11.20;;
7471;SDS011;3777;48.722;8.110;2023-12-14T05:34:45;13.80;;;11.17;;
7471;SDS011;3777;48.722;8.110;2023-12-14T05:37:12;15.50;;;11.40;;
7471;SDS011;3777;48.722;8.110;2023-12-14T05:39:40;13.60;;;11.70;;
7471;SDS011;3777;48.722;8.110;2023-12-14T05:42:08;14.60;;;11.40;;
7471;SDS011;3777;48.722;8.110;2023-12-14T05:44:35;13.03;;;10.60;;
7471;SDS011;3777;48.722;8.110;2023-12-14T05:47:02;14.27;;;11.83;;
7471;SDS011;3777;48.722;8.110;2023-12-14T05:49:30;13.47;;;11.20;;
7471;SDS011;3777;48.722;8.110;2023-12-14T05:51:58;13.50;;;11.00;;
7471;SDS011;3777;48.722;8.110;2023-12-14T05:54:26;13.07;;;10.83;;
7471;SDS011;3777;48.722;8.110;2023-12-14T05:56:53;15.00;;;12.17;;
7471;SDS011;3777;48.722;8.110;2023-12-14T05:59:19;15.50;;;12.17;;
7471;SDS011;3777;48.722;8.110;2023-12-14T06:01:46;20.87;;;16.23;;
7471;SDS011;3777;48.722;8.110;2023-12-14T06:04:13;22.77;;;17.87;;
7471;SDS011;3777;48.722;8.110;2023-12-14T06:06:42;21.60;;;16.87;;
7471;SDS011;3777;48.722;8.110;2023-12-14T06:09:09;19.93;;;16.00;;
7471;SDS011;3777;48.722;8.110;2023-12-14T06:11:36;21.63;;;15.97;;
7471;SDS011;3777;48.722;8.110;2023-12-14T06:14:03;16.40;;;13.80;;
7471;SDS011;3777;48.722;8.110;2023-12-14T06:16:30;17.83;;;14.53;;
7471;SDS011;3777;48.722;8.110;2023-12-14T06:18:56;16.80;;;13.83;;
7471;SDS011;3777;48.722;8.110;2023-12-14T06:21:23;16.30;;;14.07;;
7471;SDS011;3777;48.722;8.110;2023-12-14T06:23:55;17.73;;;12.83;;
7471;SDS011;3777;48.722;8.110;2023-12-14T06:26:22;18.40;;;12.80;;
7471;SDS011;3777;48.722;8.110;2023-12-14T06:28:49;15.00;;;12.07;;
7471;SDS011;3777;48.722;8.110;2023-12-14T06:31:17;14.50;;;11.30;;
7471;SDS011;3777;48.722;8.110;2023-12-14T06:33:46;16.80;;;11.63;;
7471;SDS011;3777;48.722;8.110;2023-12-14T06:36:14;13.27;;;10.57;;
7471;SDS011;3777;48.722;8.110;2023-12-14T06:38:42;11.77;;;10.10;;
7471;SDS011;3777;48.722;8.110;2023-12-14T06:41:19;12.93;;;10.23;;
7471;SDS011;3777;48.722;8.110;2023-12-14T06:43:46;14.23;;;10.07;;
7471;SDS011;3777;48.722;8.110;2023-12-14T06:46:13;15.83;;;10.17;;
7471;SDS011;3777;48.722;8.110;2023-12-14T06:48:40;14.23;;;9.70;;
7471;SDS011;3777;48.722;8.110;2023-12-14T06:51:07;10.73;;;9.60;;
7471;SDS011;3777;48.722;8.110;2023-12-14T06:53:34;12.60;;;9.70;;
7471;SDS011;3777;48.722;8.110;2023-12-14T06:56:02;11.93;;;9.73;;
7471;SDS011;3777;48.722;8.110;2023-12-14T06:58:31;12.03;;;10.03;;
7471;SDS011;3777;48.722;8.110;2023-12-14T07:00:58;11.90;;;10.07;;
7471;SDS011;3777;48.722;8.110;2023-12-14T07:03:25;13.40;;;10.17;;
7471;SDS011;3777;48.722;8.110;2023-12-14T07:05:52;11.17;;;9.97;;
7471;SDS011;3777;48.722;8.110;2023-12-14T07:08:19;12.53;;;9.60;;
7471;SDS011;3777;48.722;8.110;2023-12-14T07:10:45;12.60;;;9.40;;
7471;SDS011;3777;48.722;8.110;2023-12-14T07:13:12;10.87;;;9.30;;
7471;SDS011;3777;48.722;8.110;2023-12-14T07:15:41;12.20;;;9.77;;
7471;SDS011;3777;48.722;8.110;2023-12-14T07:18:08;9.57;;;8.57;;
7471;SDS011;3777;48.722;8.110;2023-12-14T07:20:35;12.50;;;9.60;;
7471;SDS011;3777;48.722;8.110;2023-12-14T07:23:02;11.43;;;9.10;;
7471;SDS011;3777;48.722;8.110;2023-12-14T07:25:28;11.27;;;9.43;;
7471;SDS011;3777;48.722;8.110;2023-12-14T07:27:55;12.27;;;10.27;;
7471;SDS011;3777;48.722;8.110;2023-12-14T07:30:22;13.30;;;10.13;;
7471;SDS011;3777;48.722;8.110;2023-12-14T07:32:51;12.10;;;9.93;;
7471;SDS011;3777;48.722;8.110;2023-12-14T07:35:18;12.60;;;10.40;;
7471;SDS011;3777;48.722;8.110;2023-12-14T07:37:45;12.73;;;10.13;;
7471;SDS011;3777;48.722;8.110;2023-12-14T07:40:12;12.80;;;9.63;;
7471;SDS011;3777;48.722;8.110;2023-12-14T07:42:39;13.57;;;9.73;;
7471;SDS011;3777;48.722;8.110;2023-12-14T07:45:06;13.20;;;9.90;;
7471;SDS011;3777;48.722;8.110;2023-12-14T07:47:34;10.83;;;9.23;;
7471;SDS011;3777;48.722;8.110;2023-12-14T07:50:03;13.47;;;9.63;;
7471;SDS011;3777;48.722;8.110;2023-12-14T07:52:31;10.97;;;9.13;;
7471;SDS011;3777;48.722;8.110;2023-12-14T07:54:58;12.33;;;9.17;;
7471;SDS011;3777;48.722;8.110;2023-12-14T07:57:25;9.70;;;8.50;;
7471;SDS011;3777;48.722;8.110;2023-12-14T07:59:52;10.03;;;8.43;;
7471;SDS011;3777;48.722;8.110;2023-12-14T08:02:19;12.27;;;9.47;;
7471;SDS011;3777;48.722;8.110;2023-12-14T08:04:46;9.40;;;8.27;;
7471;SDS011;3777;48.722;8.110;2023-12-14T08:07:14;10.70;;;8.70;;
7471;SDS011;3777;48.722;8.110;2023-12-14T08:09:41;10.03;;;8.57;;
7471;SDS011;3777;48.722;8.110;2023-12-14T08:12:08;10.67;;;9.30;;
7471;SDS011;3777;48.722;8.110;2023-12-14T08:14:35;11.77;;;8.67;;
7471;SDS011;3777;48.722;8.110;2023-12-14T08:17:02;10.87;;;9.10;;
7471;SDS011;3777;48.722;8.110;2023-12-14T08:19:30;10.83;;;8.87;;
7471;SDS011;3777;48.722;8.110;2023-12-14T08:21:57;12.70;;;8.67;;
7471;SDS011;3777;48.722;8.110;2023-12-14T08:24:25;11.80;;;9.30;;
7471;SDS011;3777;48.722;8.110;2023-12-14T08:26:52;10.97;;;9.20;;
7471;SDS011;3777;48.722;8.110;2023-12-14T08:29:19;11.40;;;9.07;;
7471;SDS011;3777;48.722;8.110;2023-12-14T08:31:47;12.03;;;10.00;;
7471;SDS011;3777;48.722;8.110;2023-12-14T08:34:15;11.67;;;10.00;;
7471;SDS011;3777;48.722;8.110;2023-12-14T08:36:41;12.90;;;9.70;;
7471;SDS011;3777;48.722;8.110;2023-12-14T08:39:09;11.17;;;9.47;;
7471;SDS011;3777;48.722;8.110;2023-12-14T08:41:37;10.33;;;9.23;;
7471;SDS011;3777;48.722;8.110;2023-12-14T08:44:04;10.63;;;9.33;;
7471;SDS011;3777;48.722;8.110;2023-12-14T08:46:38;12.07;;;9.83;;
7471;SDS011;3777;48.722;8.110;2023-12-14T08:49:05;11.37;;;10.13;;
7471;SDS011;3777;48.722;8.110;2023-12-14T08:51:32;13.27;;;10.13;;
7471;SDS011;3777;48.722;8.110;2023-12-14T08:53:59;9.80;;;8.73;;
7471;SDS011;3777;48.722;8.110;2023-12-14T08:56:26;10.43;;;8.30;;
7471;SDS011;3777;48.722;8.110;2023-12-14T08:58:56;9.87;;;8.60;;
7471;SDS011;3777;48.722;8.110;2023-12-14T09:01:24;8.73;;;7.80;;
7471;SDS011;3777;48.722;8.110;2023-12-14T09:03:51;12.47;;;8.10;;
7471;SDS011;3777;48.722;8.110;2023-12-14T09:06:18;8.83;;;7.93;;
7471;SDS011;3777;48.722;8.110;2023-12-14T09:08:45;9.27;;;8.00;;
7471;SDS011;3777;48.722;8.110;2023-12-14T09:11:13;11.77;;;8.50;;
7471;SDS011;3777;48.722;8.110;2023-12-14T09:13:40;9.30;;;8.30;;
7471;SDS011;3777;48.722;8.110;2023-12-14T09:16:09;8.50;;;7.70;;
7471;SDS011;3777;48.722;8.110;2023-12-14T09:18:35;8.80;;;7.90;;
7471;SDS011;3777;48.722;8.110;2023-12-14T09:21:03;12.00;;;8.27;;
7471;SDS011;3777;48.722;8.110;2023-12-14T09:23:30;8.43;;;7.53;;
7471;SDS011;3777;48.722;8.110;2023-12-14T09:25:57;9.90;;;8.63;;
7471;SDS011;3777;48.722;8.110;2023-12-14T09:28:24;8.23;;;6.83;;
7471;SDS011;3777;48.722;8.110;2023-12-14T09:30:51;9.70;;;8.20;;
7471;SDS011;3777;48.722;8.110;2023-12-14T09:33:19;9.10;;;7.77;;
7471;SDS011;3777;48.722;8.110;2023-12-14T09:35:46;9.97;;;7.87;;
7471;SDS011;3777;48.722;8.110;2023-12-14T09:38:13;8.50;;;7.50;;
7471;SDS011;3777;48.722;8.110;2023-12-14T09:40:42;9.07;;;8.10;;
7471;SDS011;3777;48.722;8.110;2023-12-14T09:43:10;8.53;;;7.70;;
7471;SDS011;3777;48.722;8.110;2023-12-14T09:45:39;11.20;;;8.30;;
7471;SDS011;3777;48.722;8.110;2023-12-14T09:48:10;10.67;;;7.57;;
7471;SDS011;3777;48.722;8.110;2023-12-14T09:50:40;10.63;;;7.93;;
7471;SDS011;3777;48.722;8.110;2023-12-14T09:53:07;8.93;;;7.90;;
7471;SDS011;3777;48.722;8.110;2023-12-14T09:55:35;9.23;;;8.23;;
7471;SDS011;3777;48.722;8.110;2023-12-14T09:58:02;9.93;;;7.80;;
7471;SDS011;3777;48.722;8.110;2023-12-14T10:00:32;9.00;;;7.87;;
7471;SDS011;3777;48.722;8.110;2023-12-14T10:05:50;9.13;;;7.37;;
7471;SDS011;3777;48.722;8.110;2023-12-14T10:08:17;8.43;;;7.50;;
7471;SDS011;3777;48.722;8.110;2023-12-14T10:10:45;9.07;;;7.60;;
7471;SDS011;3777;48.722;8.110;2023-12-14T10:13:16;8.73;;;7.43;;
7471;SDS011;3777;48.722;8.110;2023-12-14T10:15:43;9.47;;;7.67;;
7471;SDS011;3777;48.722;8.110;2023-12-14T10:18:11;8.33;;;7.10;;
7471;SDS011;3777;48.722;8.110;2023-12-14T10:20:39;10.10;;;7.87;;
7471;SDS011;3777;48.722;8.110;2023-12-14T10:23:08;9.53;;;8.43;;
7471;SDS011;3777;48.722;8.110;2023-12-14T10:25:35;8.97;;;8.07;;
7471;SDS011;3777;48.722;8.110;2023-12-14T10:28:02;9.03;;;8.07;;
7471;SDS011;3777;48.722;8.110;2023-12-14T10:30:29;11.37;;;8.80;;
7471;SDS011;3777;48.722;8.110;2023-12-14T10:32:56;9.40;;;8.33;;
7471;SDS011;3777;48.722;8.110;2023-12-14T10:35:24;12.30;;;9.83;;
7471;SDS011;3777;48.722;8.110;2023-12-14T10:37:51;10.13;;;8.77;;
7471;SDS011;3777;48.722;8.110;2023-12-14T10:40:20;9.43;;;8.37;;
7471;SDS011;3777;48.722;8.110;2023-12-14T10:42:49;10.47;;;9.00;;
7471;SDS011;3777;48.722;8.110;2023-12-14T10:45:16;12.67;;;9.23;;
7471;SDS011;3777;48.722;8.110;2023-12-14T10:47:45;10.00;;;8.27;;
7471;SDS011;3777;48.722;8.110;2023-12-14T10:50:13;9.57;;;8.40;;
7471;SDS011;3777;48.722;8.110;2023-12-14T10:52:40;11.60;;;8.23;;
7471;SDS011;3777;48.722;8.110;2023-12-14T10:55:09;9.30;;;7.83;;
7471;SDS011;3777;48.722;8.110;2023-12-14T10:57:48;10.50;;;8.73;;
7471;SDS011;3777;48.722;8.110;2023-12-14T11:00:18;10.63;;;8.03;;
7471;SDS011;3777;48.722;8.110;2023-12-14T11:02:45;10.47;;;8.90;;
7471;SDS011;3777;48.722;8.110;2023-12-14T11:05:13;11.53;;;9.57;;
7471;SDS011;3777;48.722;8.110;2023-12-14T11:07:48;10.50;;;9.10;;
7471;SDS011;3777;48.722;8.110;2023-12-14T11:10:21;10.83;;;9.27;;
7471;SDS011;3777;48.722;8.110;2023-12-14T11:12:59;11.30;;;9.10;;
7471;SDS011;3777;48.722;8.110;2023-12-14T11:15:29;9.60;;;8.53;;
7471;SDS011;3777;48.722;8.110;2023-12-14T11:20:48;12.43;;;9.80;;
7471;SDS011;3777;48.722;8.110;2023-12-14T11:23:16;12.97;;;9.60;;
7471;SDS011;3777;48.722;8.110;2023-12-14T11:25:53;12.87;;;10.27;;
7471;SDS011;3777;48.722;8.110;2023-12-14T11:28:24;12.60;;;10.03;;
7471;SDS011;3777;48.722;8.110;2023-12-14T11:30:51;12.93;;;10.43;;
7471;SDS011;3777;48.722;8.110;2023-12-14T11:33:18;13.10;;;10.53;;
7471;SDS011;3777;48.722;8.110;2023-12-14T11:35:45;12.30;;;9.90;;
7471;SDS011;3777;48.722;8.110;2023-12-14T11:38:12;11.70;;;10.27;;
7471;SDS011;3777;48.722;8.110;2023-12-14T11:40:39;14.13;;;10.33;;
7471;SDS011;3777;48.722;8.110;2023-12-14T11:43:06;12.17;;;10.43;;
7471;SDS011;3777;48.722;8.110;2023-12-14T11:45:36;14.47;;;10.50;;
7471;SDS011;3777;48.722;8.110;2023-12-14T11:48:04;13.13;;;10.60;;
7471;SDS011;3777;48.722;8.110;2023-12-14T11:50:32;13.97;;;10.57;;
7471;SDS011;3777;48.722;8.110;2023-12-14T11:53:00;13.80;;;11.03;;
7471;SDS011;3777;48.722;8.110;2023-12-14T11:55:28;12.93;;;10.80;;
7471;SDS011;3777;48.722;8.110;2023-12-14T11:57:55;11.47;;;10.13;;
7471;SDS011;3777;48.722;8.110;2023-12-14T12:00:23;12.27;;;10.07;;
7471;SDS011;3777;48.722;8.110;2023-12-14T12:02:53;13.07;;;10.03;;
7471;SDS011;3777;48.722;8.110;2023-12-14T12:05:36;13.73;;;10.27;;
7471;SDS011;3777;48.722;8.110;2023-12-14T12:08:04;14.40;;;10.77;;
7471;SDS011;3777;48.722;8.110;2023-12-14T12:10:31;13.57;;;11.00;;
7471;SDS011;3777;48.722;8.110;2023-12-14T12:12:59;12.03;;;10.37;;
7471;SDS011;3777;48.722;8.110;2023-12-14T12:15:27;13.23;;;9.97;;
7471;SDS011;3777;48.722;8.110;2023-12-14T12:17:57;9.93;;;8.50;;
7471;SDS011;3777;48.722;8.110;2023-12-14T12:20:24;10.57;;;8.90;;
7471;SDS011;3777;48.722;8.110;2023-12-14T12:22:52;12.20;;;8.97;;
7471;SDS011;3777;48.722;8.110;2023-12-14T12:25:19;10.63;;;8.33;;
7471;SDS011;3777;48.722;8.110;2023-12-14T12:27:47;11.70;;;9.03;;
7471;SDS011;3777;48.722;8.110;2023-12-14T12:30:14;11.27;;;8.80;;
7471;SDS011;3777;48.722;8.110;2023-12-14T12:32:42;10.03;;;8.57;;
7471;SDS011;3777;48.722;8.110;2023-12-14T12:35:11;11.87;;;9.37;;
7471;SDS011;3777;48.722;8.110;2023-12-14T12:37:38;11.37;;;9.00;;
7471;SDS011;3777;48.722;8.110;2023-12-14T12:40:06;11.00;;;9.73;;
7471;SDS011;3777;48.722;8.110;2023-12-14T12:42:33;12.77;;;9.93;;
7471;SDS011;3777;48.722;8.110;2023-12-14T12:45:00;11.53;;;9.97;;
7471;SDS011;3777;48.722;8.110;2023-12-14T12:47:27;13.97;;;10.10;;
7471;SDS011;3777;48.722;8.110;2023-12-14T12:49:55;16.23;;;13.13;;
7471;SDS011;3777;48.722;8.110;2023-12-14T12:52:23;13.43;;;10.53;;
7471;SDS011;3777;48.722;8.110;2023-12-14T12:54:50;12.40;;;9.90;;
7471;SDS011;3777;48.722;8.110;2023-12-14T12:57:17;12.47;;;10.37;;
7471;SDS011;3777;48.722;8.110;2023-12-14T12:59:44;12.30;;;10.53;;
7471;SDS011;3777;48.722;8.110;2023-12-14T13:02:11;12.87;;;11.47;;
7471;SDS011;3777;48.722;8.110;2023-12-14T13:04:38;29.90;;;24.97;;
7471;SDS011;3777;48.722;8.110;2023-12-14T13:07:05;34.80;;;27.77;;
7471;SDS011;3777;48.722;8.110;2023-12-14T13:09:34;45.57;;;34.70;;
7471;SDS011;3777;48.722;8.110;2023-12-14T13:12:00;22.40;;;17.90;;
7471;SDS011;3777;48.722;8.110;2023-12-14T13:14:27;30.57;;;22.00;;
7471;SDS011;3777;48.722;8.110;2023-12-14T13:16:54;43.80;;;28.63;;
7471;SDS011;3777;48.722;8.110;2023-12-14T13:19:23;100.70;;;55.60;;
7471;SDS011;3777;48.722;8.110;2023-12-14T13:21:51;107.80;;;66.03;;
7471;SDS011;3777;48.722;8.110;2023-12-14T13:24:18;65.93;;;44.70;;
7471;SDS011;3777;48.722;8.110;2023-12-14T13:26:46;19.90;;;14.60;;
7471;SDS011;3777;48.722;8.110;2023-12-14T13:29:13;118.33;;;66.60;;
7471;SDS011;3777;48.722;8.110;2023-12-14T13:31:40;168.87;;;91.20;;
7471;SDS011;3777;48.722;8.110;2023-12-14T13:34:07;45.37;;;27.97;;
7471;SDS011;3777;48.722;8.110;2023-12-14T13:36:34;19.23;;;14.73;;
7471;SDS011;3777;48.722;8.110;2023-12-14T13:39:01;16.90;;;13.20;;
7471;SDS011;3777;48.722;8.110;2023-12-14T13:41:28;15.53;;;12.43;;
7471;SDS011;3777;48.722;8.110;2023-12-14T13:44:00;14.70;;;13.13;;
7471;SDS011;3777;48.722;8.110;2023-12-14T13:46:27;17.57;;;14.30;;
7471;SDS011;3777;48.722;8.110;2023-12-14T13:48:54;20.10;;;13.70;;
7471;SDS011;3777;48.722;8.110;2023-12-14T13:51:21;16.70;;;14.67;;
7471;SDS011;3777;48.722;8.110;2023-12-14T13:53:48;16.10;;;13.03;;
7471;SDS011;3777;48.722;8.110;2023-12-14T13:56:15;17.27;;;13.27;;
7471;SDS011;3777;48.722;8.110;2023-12-14T13:58:43;18.73;;;13.67;;
7471;SDS011;3777;48.722;8.110;2023-12-14T14:01:11;16.43;;;12.80;;
7471;SDS011;3777;48.722;8.110;2023-12-14T14:03:38;16.70;;;13.33;;
7471;SDS011;3777;48.722;8.110;2023-12-14T14:06:07;16.80;;;12.90;;
7471;SDS011;3777;48.722;8.110;2023-12-14T14:08:35;14.33;;;10.77;;
7471;SDS011;3777;48.722;8.110;2023-12-14T14:11:02;13.50;;;10.47;;
7471;SDS011;3777;48.722;8.110;2023-12-14T14:13:29;12.77;;;10.10;;
7471;SDS011;3777;48.722;8.110;2023-12-14T14:15:57;14.07;;;10.90;;
7471;SDS011;3777;48.722;8.110;2023-12-14T14:18:25;12.83;;;9.80;;
7471;SDS011;3777;48.722;8.110;2023-12-14T14:20:52;13.07;;;10.00;;
7471;SDS011;3777;48.722;8.110;2023-12-14T14:23:19;13.00;;;9.37;;
7471;SDS011;3777;48.722;8.110;2023-12-14T14:25:46;11.60;;;9.07;;
7471;SDS011;3777;48.722;8.110;2023-12-14T14:28:13;20.73;;;15.83;;
7471;SDS011;3777;48.722;8.110;2023-12-14T14:30:40;17.40;;;13.27;;
7471;SDS011;3777;48.722;8.110;2023-12-14T14:33:07;14.37;;;11.47;;
7471;SDS011;3777;48.722;8.110;2023-12-14T14:35:35;18.80;;;16.67;;
7471;SDS011;3777;48.722;8.110;2023-12-14T14:38:02;14.83;;;12.50;;
7471;SDS011;3777;48.722;8.110;2023-12-14T14:40:29;15.90;;;14.20;;
7471;SDS011;3777;48.722;8.110;2023-12-14T14:42:56;16.10;;;13.63;;
7471;SDS011;3777;48.722;8.110;2023-12-14T14:45:23;13.70;;;12.20;;
7471;SDS011;3777;48.722;8.110;2023-12-14T14:47:50;19.20;;;17.07;;
7471;SDS011;3777;48.722;8.110;2023-12-14T14:50:17;14.73;;;13.23;;
7471;SDS011;3777;48.722;8.110;2023-12-14T14:52:45;14.20;;;11.57;;
7471;SDS011;3777;48.722;8.110;2023-12-14T14:55:13;11.30;;;9.77;;
7471;SDS011;3777;48.722;8.110;2023-12-14T14:57:40;11.50;;;9.80;;
7471;SDS011;3777;48.722;8.110;2023-12-14T15:00:07;11.73;;;10.27;;
7471;SDS011;3777;48.722;8.110;2023-12-14T15:02:35;12.37;;;10.40;;
7471;SDS011;3777;48.722;8.110;2023-12-14T15:05:02;13.97;;;11.37;;
7471;SDS011;3777;48.722;8.110;2023-12-14T15:07:29;13.63;;;11.30;;